Allen, Alabama
Current Conditions -  °F | °C
As of 7:53 PM on Tuesday 25 Nov 2014 (Local Time) from KGZH Reporting Station
Scattered Clouds Scattered Clouds  
Wind Chill: 54°   Ceiling: Unl
Heat Index: 54°   Visibility: 10mi
Dew Point: 35°   Wind: 7mph
Humidity: 49%   Direction: 330°NNW
Pressure: 30.11"   Gusts: NA
Location:  31.6°N, 87.71°W
Report Text: KGZH 260153Z AUTO 33006KT 10SM SCT120 12/02 A3011 RMK AO2 SLP194 T01220017
Loading
Personal Weather Stations






























Interactive Weather Map New forecast layout! Learn more

10-Day Weather Forecast

Advertisements
Track Severe Weather on mobile